sensor_id;sensor_type;location;lat;lon;timestamp;temperature;humidity
41471;DHT22;27211;51.220;5.308;2023-04-24T05:17:04;8.90;99.90
41471;DHT22;27211;51.220;5.308;2023-04-24T05:19:36;9.00;99.90
41471;DHT22;27211;51.220;5.308;2023-04-24T05:22:04;9.10;99.90
41471;DHT22;27211;51.220;5.308;2023-04-24T05:24:35;9.10;99.90
41471;DHT22;27211;51.220;5.308;2023-04-24T05:27:04;9.00;99.90
41471;DHT22;27211;51.220;5.308;2023-04-24T05:29:32;9.00;99.90
41471;DHT22;27211;51.220;5.308;2023-04-24T05:32:00;9.00;99.90
41471;DHT22;27211;51.220;5.308;2023-04-24T05:34:27;8.90;99.90
41471;DHT22;27211;51.220;5.308;2023-04-24T05:37:01;8.90;99.90
41471;DHT22;27211;51.220;5.308;2023-04-24T05:39:27;8.90;99.90
41471;DHT22;27211;51.220;5.308;2023-04-24T05:41:54;8.90;99.90
41471;DHT22;27211;51.220;5.308;2023-04-24T05:44:23;8.90;99.90
41471;DHT22;27211;51.220;5.308;2023-04-24T05:46:51;9.00;99.90
41471;DHT22;27211;51.220;5.308;2023-04-24T05:49:18;8.80;99.90
41471;DHT22;27211;51.220;5.308;2023-04-24T05:51:54;8.70;99.90
41471;DHT22;27211;51.220;5.308;2023-04-24T05:54:29;8.70;99.90
41471;DHT22;27211;51.220;5.308;2023-04-24T05:56:55;8.60;99.90
41471;DHT22;27211;51.220;5.308;2023-04-24T05:59:23;8.60;99.90
41471;DHT22;27211;51.220;5.308;2023-04-24T06:01:51;8.70;99.90
41471;DHT22;27211;51.220;5.308;2023-04-24T06:04:18;8.70;99.90
41471;DHT22;27211;51.220;5.308;2023-04-24T06:06:47;8.70;99.90
41471;DHT22;27211;51.220;5.308;2023-04-24T06:09:19;8.80;99.90
41471;DHT22;27211;51.220;5.308;2023-04-24T06:11:49;8.70;99.90
41471;DHT22;27211;51.220;5.308;2023-04-24T06:14:18;8.60;99.90
41471;DHT22;27211;51.220;5.308;2023-04-24T06:16:46;8.60;99.90
41471;DHT22;27211;51.220;5.308;2023-04-24T06:19:13;8.60;99.90
41471;DHT22;27211;51.220;5.308;2023-04-24T06:21:43;8.60;99.90
41471;DHT22;27211;51.220;5.308;2023-04-24T06:24:09;8.60;99.90
41471;DHT22;27211;51.220;5.308;2023-04-24T06:26:36;8.60;99.90
41471;DHT22;27211;51.220;5.308;2023-04-24T06:29:04;8.60;99.90
41471;DHT22;27211;51.220;5.308;2023-04-24T06:31:32;8.60;99.90
41471;DHT22;27211;51.220;5.308;2023-04-24T06:34:02;8.60;99.90
41471;DHT22;27211;51.220;5.308;2023-04-24T06:36:29;8.70;99.90
41471;DHT22;27211;51.220;5.308;2023-04-24T06:38:57;8.70;99.90
41471;DHT22;27211;51.220;5.308;2023-04-24T06:41:24;8.60;99.90
41471;DHT22;27211;51.220;5.308;2023-04-24T06:43:52;8.60;99.90
41471;DHT22;27211;51.220;5.308;2023-04-24T06:46:21;8.70;99.90
41471;DHT22;27211;51.220;5.308;2023-04-24T06:48:51;8.60;99.90
41471;DHT22;27211;51.220;5.308;2023-04-24T06:51:22;8.50;99.90
41471;DHT22;27211;51.220;5.308;2023-04-24T06:53:50;8.60;99.90
41471;DHT22;27211;51.220;5.308;2023-04-24T06:56:18;8.60;99.90
41471;DHT22;27211;51.220;5.308;2023-04-24T06:58:46;8.60;99.90
41471;DHT22;27211;51.220;5.308;2023-04-24T07:01:13;8.50;99.90
41471;DHT22;27211;51.220;5.308;2023-04-24T07:03:41;8.50;99.90
41471;DHT22;27211;51.220;5.308;2023-04-24T07:06:09;8.40;99.90
41471;DHT22;27211;51.220;5.308;2023-04-24T07:08:39;8.40;99.90
41471;DHT22;27211;51.220;5.308;2023-04-24T07:11:07;8.40;99.90
41471;DHT22;27211;51.220;5.308;2023-04-24T07:13:34;8.50;99.90
41471;DHT22;27211;51.220;5.308;2023-04-24T07:16:05;8.60;99.90
41471;DHT22;27211;51.220;5.308;2023-04-24T07:18:33;8.50;99.90
41471;DHT22;27211;51.220;5.308;2023-04-24T07:21:01;8.50;99.90
41471;DHT22;27211;51.220;5.308;2023-04-24T07:23:29;8.50;99.90
41471;DHT22;27211;51.220;5.308;2023-04-24T07:25:57;8.50;99.90
41471;DHT22;27211;51.220;5.308;2023-04-24T07:28:24;8.50;99.90
41471;DHT22;27211;51.220;5.308;2023-04-24T07:30:52;8.50;99.90
41471;DHT22;27211;51.220;5.308;2023-04-24T07:33:20;8.70;99.90
41471;DHT22;27211;51.220;5.308;2023-04-24T07:35:49;8.70;99.90
41471;DHT22;27211;51.220;5.308;2023-04-24T07:38:17;8.70;99.90
41471;DHT22;27211;51.220;5.308;2023-04-24T07:40:46;8.70;99.90
41471;DHT22;27211;51.220;5.308;2023-04-24T07:43:13;8.80;99.90
41471;DHT22;27211;51.220;5.308;2023-04-24T07:45:41;8.80;99.90
41471;DHT22;27211;51.220;5.308;2023-04-24T07:48:08;8.90;99.90
41471;DHT22;27211;51.220;5.308;2023-04-24T07:50:36;9.00;99.90
41471;DHT22;27211;51.220;5.308;2023-04-24T07:53:05;9.00;99.90
41471;DHT22;27211;51.220;5.308;2023-04-24T07:55:33;8.90;99.90
41471;DHT22;27211;51.220;5.308;2023-04-24T07:58:01;8.90;99.90
41471;DHT22;27211;51.220;5.308;2023-04-24T08:00:29;8.90;99.90
41471;DHT22;27211;51.220;5.308;2023-04-24T08:02:57;9.00;99.90
41471;DHT22;27211;51.220;5.308;2023-04-24T08:05:25;9.00;99.90
41471;DHT22;27211;51.220;5.308;2023-04-24T08:07:54;9.00;99.90
41471;DHT22;27211;51.220;5.308;2023-04-24T08:10:23;9.10;99.90
41471;DHT22;27211;51.220;5.308;2023-04-24T08:12:51;9.10;99.90
41471;DHT22;27211;51.220;5.308;2023-04-24T08:15:19;9.20;99.90
41471;DHT22;27211;51.220;5.308;2023-04-24T08:17:47;9.20;99.90
41471;DHT22;27211;51.220;5.308;2023-04-24T08:20:16;9.10;99.90
41471;DHT22;27211;51.220;5.308;2023-04-24T08:22:45;9.20;99.90
41471;DHT22;27211;51.220;5.308;2023-04-24T08:25:14;9.30;99.90
41471;DHT22;27211;51.220;5.308;2023-04-24T08:27:43;9.30;99.90
41471;DHT22;27211;51.220;5.308;2023-04-24T08:30:11;9.40;99.90
41471;DHT22;27211;51.220;5.308;2023-04-24T08:32:39;9.40;99.90
41471;DHT22;27211;51.220;5.308;2023-04-24T08:35:07;9.50;99.90
41471;DHT22;27211;51.220;5.308;2023-04-24T08:37:37;9.50;99.90
41471;DHT22;27211;51.220;5.308;2023-04-24T08:40:12;9.60;99.90
41471;DHT22;27211;51.220;5.308;2023-04-24T08:42:43;9.80;99.90
41471;DHT22;27211;51.220;5.308;2023-04-24T08:45:10;9.90;99.90
41471;DHT22;27211;51.220;5.308;2023-04-24T08:47:39;9.80;99.90
41471;DHT22;27211;51.220;5.308;2023-04-24T08:50:07;10.00;99.90
41471;DHT22;27211;51.220;5.308;2023-04-24T08:52:35;10.30;99.90
41471;DHT22;27211;51.220;5.308;2023-04-24T08:55:03;10.40;99.90
41471;DHT22;27211;51.220;5.308;2023-04-24T08:57:40;10.40;99.90
41471;DHT22;27211;51.220;5.308;2023-04-24T09:00:09;10.40;99.90
41471;DHT22;27211;51.220;5.308;2023-04-24T09:02:39;10.30;99.90
41471;DHT22;27211;51.220;5.308;2023-04-24T09:05:08;10.20;99.90
41471;DHT22;27211;51.220;5.308;2023-04-24T09:07:36;10.20;99.90
41471;DHT22;27211;51.220;5.308;2023-04-24T09:10:06;10.20;99.90
41471;DHT22;27211;51.220;5.308;2023-04-24T09:12:34;10.00;99.90
41471;DHT22;27211;51.220;5.308;2023-04-24T09:15:02;10.00;99.90
41471;DHT22;27211;51.220;5.308;2023-04-24T09:17:30;10.00;99.90
41471;DHT22;27211;51.220;5.308;2023-04-24T09:19:58;10.00;99.90
41471;DHT22;27211;51.220;5.308;2023-04-24T09:22:28;10.10;99.90
41471;DHT22;27211;51.220;5.308;2023-04-24T09:25:09;10.00;99.90
41471;DHT22;27211;51.220;5.308;2023-04-24T09:27:41;10.00;99.90
41471;DHT22;27211;51.220;5.308;2023-04-24T09:30:07;10.00;99.90
41471;DHT22;27211;51.220;5.308;2023-04-24T09:32:34;10.00;99.90
41471;DHT22;27211;51.220;5.308;2023-04-24T09:37:45;10.40;99.90
41471;DHT22;27211;51.220;5.308;2023-04-24T09:42:45;11.30;99.90
41471;DHT22;27211;51.220;5.308;2023-04-24T09:45:12;11.70;99.90
41471;DHT22;27211;51.220;5.308;2023-04-24T09:47:40;12.60;99.90
41471;DHT22;27211;51.220;5.308;2023-04-24T09:53:19;13.70;99.90
41471;DHT22;27211;51.220;5.308;2023-04-24T09:55:27;13.50;99.90
41471;DHT22;27211;51.220;5.308;2023-04-24T09:57:56;13.40;99.90
41471;DHT22;27211;51.220;5.308;2023-04-24T10:00:32;13.30;99.90
41471;DHT22;27211;51.220;5.308;2023-04-24T10:03:04;13.30;99.90
41471;DHT22;27211;51.220;5.308;2023-04-24T10:05:32;13.10;99.90
41471;DHT22;27211;51.220;5.308;2023-04-24T10:10:43;13.10;99.90
41471;DHT22;27211;51.220;5.308;2023-04-24T10:13:09;12.70;99.90
41471;DHT22;27211;51.220;5.308;2023-04-24T10:15:36;12.50;99.90
41471;DHT22;27211;51.220;5.308;2023-04-24T10:18:04;12.20;99.90
41471;DHT22;27211;51.220;5.308;2023-04-24T10:20:32;11.90;99.90
41471;DHT22;27211;51.220;5.308;2023-04-24T10:22:59;11.60;99.90
41471;DHT22;27211;51.220;5.308;2023-04-24T10:25:26;11.70;99.90
41471;DHT22;27211;51.220;5.308;2023-04-24T10:27:53;11.70;99.90
41471;DHT22;27211;51.220;5.308;2023-04-24T10:30:30;12.00;99.90
41471;DHT22;27211;51.220;5.308;2023-04-24T10:33:04;12.20;99.90
41471;DHT22;27211;51.220;5.308;2023-04-24T10:35:31;12.50;99.90
41471;DHT22;27211;51.220;5.308;2023-04-24T10:38:01;12.70;99.90
41471;DHT22;27211;51.220;5.308;2023-04-24T10:40:33;12.70;99.90
41471;DHT22;27211;51.220;5.308;2023-04-24T10:43:03;12.80;99.90
41471;DHT22;27211;51.220;5.308;2023-04-24T10:45:33;12.70;99.90
41471;DHT22;27211;51.220;5.308;2023-04-24T10:48:02;12.50;99.90
41471;DHT22;27211;51.220;5.308;2023-04-24T10:50:43;12.60;99.90
41471;DHT22;27211;51.220;5.308;2023-04-24T10:53:18;12.60;99.90
41471;DHT22;27211;51.220;5.308;2023-04-24T10:55:47;12.50;99.90
41471;DHT22;27211;51.220;5.308;2023-04-24T10:58:14;12.70;99.90
41471;DHT22;27211;51.220;5.308;2023-04-24T11:00:42;12.90;99.90
41471;DHT22;27211;51.220;5.308;2023-04-24T11:03:29;12.80;99.90
41471;DHT22;27211;51.220;5.308;2023-04-24T11:05:58;12.60;99.90
41471;DHT22;27211;51.220;5.308;2023-04-24T11:08:27;12.60;99.90
41471;DHT22;27211;51.220;5.308;2023-04-24T11:10:55;12.40;99.90
41471;DHT22;27211;51.220;5.308;2023-04-24T11:13:23;12.40;99.90
41471;DHT22;27211;51.220;5.308;2023-04-24T11:18:39;12.20;99.90
41471;DHT22;27211;51.220;5.308;2023-04-24T11:21:15;12.30;99.90
41471;DHT22;27211;51.220;5.308;2023-04-24T11:23:44;12.20;99.90
41471;DHT22;27211;51.220;5.308;2023-04-24T11:26:18;12.00;99.90
41471;DHT22;27211;51.220;5.308;2023-04-24T11:28:46;11.90;99.90
41471;DHT22;27211;51.220;5.308;2023-04-24T11:34:05;11.90;99.90
41471;DHT22;27211;51.220;5.308;2023-04-24T11:36:31;12.00;99.90
41471;DHT22;27211;51.220;5.308;2023-04-24T11:38:59;12.00;99.90
41471;DHT22;27211;51.220;5.308;2023-04-24T11:41:27;12.20;99.90
41471;DHT22;27211;51.220;5.308;2023-04-24T11:43:55;12.40;99.90
41471;DHT22;27211;51.220;5.308;2023-04-24T11:46:22;12.40;99.90
41471;DHT22;27211;51.220;5.308;2023-04-24T11:48:48;12.50;99.90
41471;DHT22;27211;51.220;5.308;2023-04-24T11:51:15;12.90;99.90
41471;DHT22;27211;51.220;5.308;2023-04-24T11:53:41;13.00;99.90
41471;DHT22;27211;51.220;5.308;2023-04-24T11:56:08;12.80;99.90
41471;DHT22;27211;51.220;5.308;2023-04-24T11:58:37;12.70;99.90
41471;DHT22;27211;51.220;5.308;2023-04-24T12:01:04;12.60;99.90
41471;DHT22;27211;51.220;5.308;2023-04-24T12:03:31;12.30;99.90
41471;DHT22;27211;51.220;5.308;2023-04-24T12:06:06;12.10;99.90
41471;DHT22;27211;51.220;5.308;2023-04-24T12:08:36;11.90;99.90
41471;DHT22;27211;51.220;5.308;2023-04-24T12:11:04;11.60;99.90
41471;DHT22;27211;51.220;5.308;2023-04-24T12:13:32;11.80;99.90
41471;DHT22;27211;51.220;5.308;2023-04-24T12:16:01;12.00;99.90
41471;DHT22;27211;51.220;5.308;2023-04-24T12:18:28;12.10;99.90
41471;DHT22;27211;51.220;5.308;2023-04-24T12:21:14;12.10;99.90
41471;DHT22;27211;51.220;5.308;2023-04-24T12:23:46;12.10;99.90
41471;DHT22;27211;51.220;5.308;2023-04-24T12:26:20;12.40;99.90
41471;DHT22;27211;51.220;5.308;2023-04-24T12:28:48;12.60;99.90
41471;DHT22;27211;51.220;5.308;2023-04-24T12:31:16;12.60;99.90
41471;DHT22;27211;51.220;5.308;2023-04-24T12:33:43;12.70;99.90
41471;DHT22;27211;51.220;5.308;2023-04-24T12:36:11;12.50;99.90
41471;DHT22;27211;51.220;5.308;2023-04-24T12:38:43;12.60;99.90
41471;DHT22;27211;51.220;5.308;2023-04-24T12:41:12;12.40;99.90
41471;DHT22;27211;51.220;5.308;2023-04-24T12:43:50;12.40;99.90
41471;DHT22;27211;51.220;5.308;2023-04-24T12:46:18;12.40;99.90
41471;DHT22;27211;51.220;5.308;2023-04-24T12:48:45;12.70;99.90
41471;DHT22;27211;51.220;5.308;2023-04-24T12:51:11;12.80;99.90
41471;DHT22;27211;51.220;5.308;2023-04-24T12:53:37;13.00;99.90
41471;DHT22;27211;51.220;5.308;2023-04-24T12:56:04;13.30;99.90
41471;DHT22;27211;51.220;5.308;2023-04-24T12:58:35;13.70;99.90
41471;DHT22;27211;51.220;5.308;2023-04-24T13:01:03;13.60;99.90
41471;DHT22;27211;51.220;5.308;2023-04-24T13:03:30;13.40;99.90
41471;DHT22;27211;51.220;5.308;2023-04-24T13:05:58;13.50;99.90
41471;DHT22;27211;51.220;5.308;2023-04-24T13:08:27;13.50;99.90
41471;DHT22;27211;51.220;5.308;2023-04-24T13:10:55;13.60;99.90
41471;DHT22;27211;51.220;5.308;2023-04-24T13:13:23;13.70;99.90
41471;DHT22;27211;51.220;5.308;2023-04-24T13:15:51;13.80;99.90
41471;DHT22;27211;51.220;5.308;2023-04-24T13:18:18;13.70;99.90
41471;DHT22;27211;51.220;5.308;2023-04-24T13:20:46;13.70;99.90
41471;DHT22;27211;51.220;5.308;2023-04-24T13:23:14;13.60;99.90
41471;DHT22;27211;51.220;5.308;2023-04-24T13:25:42;13.80;99.90
41471;DHT22;27211;51.220;5.308;2023-04-24T13:28:10;13.90;99.90
41471;DHT22;27211;51.220;5.308;2023-04-24T13:30:38;14.30;99.90
41471;DHT22;27211;51.220;5.308;2023-04-24T13:33:06;14.30;99.90
41471;DHT22;27211;51.220;5.308;2023-04-24T13:35:34;14.50;99.90
41471;DHT22;27211;51.220;5.308;2023-04-24T13:38:05;14.60;99.90
41471;DHT22;27211;51.220;5.308;2023-04-24T13:40:33;15.00;99.90
41471;DHT22;27211;51.220;5.308;2023-04-24T13:43:02;15.30;99.90
41471;DHT22;27211;51.220;5.308;2023-04-24T13:45:28;15.50;99.90
41471;DHT22;27211;51.220;5.308;2023-04-24T13:47:55;15.60;99.90
41471;DHT22;27211;51.220;5.308;2023-04-24T13:50:22;15.70;99.90
41471;DHT22;27211;51.220;5.308;2023-04-24T13:52:48;16.70;99.90
41471;DHT22;27211;51.220;5.308;2023-04-24T13:55:15;16.80;98.70
41471;DHT22;27211;51.220;5.308;2023-04-24T13:57:43;16.20;98.90
41471;DHT22;27211;51.220;5.308;2023-04-24T14:00:09;16.20;99.70
41471;DHT22;27211;51.220;5.308;2023-04-24T14:02:38;16.00;99.10
41471;DHT22;27211;51.220;5.308;2023-04-24T14:05:05;15.50;99.90
41471;DHT22;27211;51.220;5.308;2023-04-24T14:07:34;15.30;99.90
41471;DHT22;27211;51.220;5.308;2023-04-24T14:10:03;15.70;99.90
41471;DHT22;27211;51.220;5.308;2023-04-24T14:12:31;15.70;99.90
41471;DHT22;27211;51.220;5.308;2023-04-24T14:14:57;16.80;99.90
41471;DHT22;27211;51.220;5.308;2023-04-24T14:17:26;17.20;99.90
41471;DHT22;27211;51.220;5.308;2023-04-24T14:19:52;17.70;99.90
41471;DHT22;27211;51.220;5.308;2023-04-24T14:22:21;18.00;98.60
41471;DHT22;27211;51.220;5.308;2023-04-24T14:27:29;18.10;98.80
41471;DHT22;27211;51.220;5.308;2023-04-24T14:29:57;18.70;97.30
41471;DHT22;27211;51.220;5.308;2023-04-24T14:32:32;17.80;97.90
41471;DHT22;27211;51.220;5.308;2023-04-24T14:34:59;17.60;98.30
41471;DHT22;27211;51.220;5.308;2023-04-24T14:37:28;18.50;96.60
41471;DHT22;27211;51.220;5.308;2023-04-24T14:39:55;18.70;95.30
41471;DHT22;27211;51.220;5.308;2023-04-24T14:42:23;19.70;94.20
41471;DHT22;27211;51.220;5.308;2023-04-24T14:44:50;20.40;92.90
41471;DHT22;27211;51.220;5.308;2023-04-24T14:47:16;21.10;92.30
41471;DHT22;27211;51.220;5.308;2023-04-24T14:49:47;20.30;90.20
41471;DHT22;27211;51.220;5.308;2023-04-24T14:52:13;20.30;90.10
41471;DHT22;27211;51.220;5.308;2023-04-24T14:57:40;19.00;90.80
41471;DHT22;27211;51.220;5.308;2023-04-24T15:00:06;17.70;93.40
41471;DHT22;27211;51.220;5.308;2023-04-24T15:02:34;17.60;92.40
41471;DHT22;27211;51.220;5.308;2023-04-24T15:05:03;17.30;92.90
41471;DHT22;27211;51.220;5.308;2023-04-24T15:07:29;18.10;92.90
41471;DHT22;27211;51.220;5.308;2023-04-24T15:09:56;18.90;91.80
41471;DHT22;27211;51.220;5.308;2023-04-24T15:12:31;19.30;91.40
41471;DHT22;27211;51.220;5.308;2023-04-24T15:15:01;18.30;92.20
41471;DHT22;27211;51.220;5.308;2023-04-24T15:17:29;17.50;93.80
41471;DHT22;27211;51.220;5.308;2023-04-24T15:19:58;16.60;94.70
41471;DHT22;27211;51.220;5.308;2023-04-24T15:22:26;16.20;96.10
41471;DHT22;27211;51.220;5.308;2023-04-24T15:25:02;15.90;97.40
41471;DHT22;27211;51.220;5.308;2023-04-24T15:27:43;16.00;98.30
41471;DHT22;27211;51.220;5.308;2023-04-24T15:30:09;15.60;99.30
41471;DHT22;27211;51.220;5.308;2023-04-24T15:32:36;15.30;99.70
41471;DHT22;27211;51.220;5.308;2023-04-24T15:35:02;15.00;99.90
41471;DHT22;27211;51.220;5.308;2023-04-24T15:37:29;15.10;99.90
41471;DHT22;27211;51.220;5.308;2023-04-24T15:39:57;15.20;99.90
41471;DHT22;27211;51.220;5.308;2023-04-24T15:42:25;15.30;99.90
41471;DHT22;27211;51.220;5.308;2023-04-24T15:44:51;15.40;99.90
41471;DHT22;27211;51.220;5.308;2023-04-24T15:47:18;15.10;99.90
41471;DHT22;27211;51.220;5.308;2023-04-24T15:49:44;15.10;99.90
41471;DHT22;27211;51.220;5.308;2023-04-24T15:52:11;15.00;99.90
41471;DHT22;27211;51.220;5.308;2023-04-24T15:54:38;15.00;99.90
41471;DHT22;27211;51.220;5.308;2023-04-24T15:57:25;15.20;99.90
41471;DHT22;27211;51.220;5.308;2023-04-24T15:59:51;15.10;99.90
41471;DHT22;27211;51.220;5.308;2023-04-24T16:02:21;14.90;99.90
41471;DHT22;27211;51.220;5.308;2023-04-24T16:04:51;14.70;99.90
41471;DHT22;27211;51.220;5.308;2023-04-24T16:07:17;14.40;99.90
41471;DHT22;27211;51.220;5.308;2023-04-24T16:09:44;14.60;99.90
41471;DHT22;27211;51.220;5.308;2023-04-24T16:12:19;14.40;99.90
41471;DHT22;27211;51.220;5.308;2023-04-24T16:14:45;14.20;99.90
41471;DHT22;27211;51.220;5.308;2023-04-24T16:17:11;14.30;99.90
41471;DHT22;27211;51.220;5.308;2023-04-24T16:19:38;14.00;99.90
41471;DHT22;27211;51.220;5.308;2023-04-24T16:22:05;14.20;99.90
41471;DHT22;27211;51.220;5.308;2023-04-24T16:24:31;14.30;99.90
41471;DHT22;27211;51.220;5.308;2023-04-24T16:26:57;14.00;99.90
41471;DHT22;27211;51.220;5.308;2023-04-24T16:29:24;13.80;99.90
41471;DHT22;27211;51.220;5.308;2023-04-24T16:31:50;13.40;99.90
41471;DHT22;27211;51.220;5.308;2023-04-24T16:34:19;13.40;99.90
41471;DHT22;27211;51.220;5.308;2023-04-24T16:36:46;13.30;99.90
41471;DHT22;27211;51.220;5.308;2023-04-24T16:39:12;13.20;99.90
41471;DHT22;27211;51.220;5.308;2023-04-24T16:41:39;13.20;99.90
41471;DHT22;27211;51.220;5.308;2023-04-24T16:44:14;13.20;99.90
41471;DHT22;27211;51.220;5.308;2023-04-24T16:46:40;13.30;99.90
41471;DHT22;27211;51.220;5.308;2023-04-24T16:49:07;13.40;99.90
41471;DHT22;27211;51.220;5.308;2023-04-24T16:51:36;13.20;99.90
41471;DHT22;27211;51.220;5.308;2023-04-24T16:54:02;13.10;99.90
41471;DHT22;27211;51.220;5.308;2023-04-24T16:56:28;13.10;99.90
